createdAt,value
2022-10-20T00:02:13.996Z,100001.47
2022-10-20T00:04:40.330Z,100003.22
2022-10-20T00:07:06.882Z,100007.44
2022-10-20T00:09:33.514Z,100003.34
2022-10-20T00:11:59.822Z,100005.06
2022-10-20T00:14:26.398Z,99993.97
2022-10-20T00:16:52.759Z,99996.59
2022-10-20T00:19:19.143Z,100001.94
2022-10-20T00:21:45.525Z,99994.09
2022-10-20T00:24:11.982Z,99999.44
2022-10-20T00:26:38.383Z,100001.13
2022-10-20T00:29:04.805Z,99998.28
2022-10-20T00:31:32.195Z,100001.66
2022-10-20T00:33:58.926Z,99993.22
2022-10-20T00:36:25.303Z,100007.25
2022-10-20T00:38:57.645Z,100005.59
2022-10-20T00:41:24.182Z,100001.31
2022-10-20T00:43:59.678Z,100004.06
2022-10-20T00:46:32.984Z,100003.09
2022-10-20T00:49:06.524Z,100004.16
2022-10-20T00:51:33.913Z,99994.66
2022-10-20T00:54:07.561Z,99995.66
2022-10-20T00:56:37.099Z,99993.16
2022-10-20T00:59:04.924Z,99985.53
2022-10-20T01:01:31.949Z,99973.47
2022-10-20T01:03:59.295Z,99979.59
2022-10-20T01:06:25.713Z,99975.47
2022-10-20T01:08:53.908Z,99979.00
2022-10-20T01:11:29.493Z,99970.25
2022-10-20T01:14:21.996Z,99969.16
2022-10-20T01:17:04.176Z,99960.56
2022-10-20T01:20:09.340Z,99964.16
2022-10-20T01:23:09.904Z,99953.97
2022-10-20T01:25:57.437Z,99947.28
2022-10-20T01:28:42.566Z,99954.31
2022-10-20T01:31:21.801Z,99951.94
2022-10-20T01:34:01.410Z,99947.78
2022-10-20T01:36:38.654Z,99943.69
2022-10-20T01:39:11.292Z,99934.31
2022-10-20T01:41:48.270Z,99918.06
2022-10-20T01:44:17.233Z,99931.34
2022-10-20T01:46:45.092Z,99935.59
2022-10-20T01:49:14.032Z,99933.19
2022-10-20T01:54:07.181Z,99922.00
2022-10-20T01:56:51.660Z,99924.31
2022-10-20T01:59:56.305Z,99919.25
2022-10-20T02:03:08.036Z,99902.56
2022-10-20T02:06:03.622Z,99901.84
2022-10-20T02:08:38.186Z,99903.72
2022-10-20T02:11:07.547Z,99907.34
2022-10-20T02:13:37.263Z,99893.66
2022-10-20T02:16:11.438Z,99889.06
2022-10-20T02:18:42.657Z,99883.84
2022-10-20T02:21:10.775Z,99883.91
2022-10-20T02:23:40.449Z,99885.88
2022-10-20T02:26:09.320Z,99869.56
2022-10-20T02:28:40.144Z,99878.28
2022-10-20T02:31:07.004Z,99868.94
2022-10-20T02:33:34.842Z,99875.59
2022-10-20T02:36:06.074Z,99877.41
2022-10-20T02:38:32.572Z,99875.88
2022-10-20T02:40:59.127Z,99859.59
2022-10-20T02:43:25.667Z,99852.78
2022-10-20T02:45:52.103Z,99854.56
2022-10-20T02:48:18.579Z,99868.50
2022-10-20T02:50:45.221Z,99863.44
2022-10-20T02:53:11.826Z,99866.22
2022-10-20T02:55:38.149Z,99844.59
2022-10-20T02:58:04.580Z,99840.38
2022-10-20T03:00:30.986Z,99860.88
2022-10-20T03:02:57.506Z,99858.47
2022-10-20T03:05:24.059Z,99855.94
2022-10-20T03:07:50.454Z,99851.44
2022-10-20T03:10:17.155Z,99855.06
2022-10-20T03:12:43.596Z,99861.25
2022-10-20T03:15:10.445Z,99852.75
2022-10-20T03:17:37.175Z,99849.63
2022-10-20T03:20:05.015Z,99851.28
2022-10-20T03:22:31.475Z,99851.59
2022-10-20T03:24:58.037Z,99845.72
2022-10-20T03:27:24.372Z,99845.78
2022-10-20T03:29:50.815Z,99846.69
2022-10-20T03:32:17.177Z,99835.59
2022-10-20T03:34:43.494Z,99830.44
2022-10-20T03:37:10.153Z,99832.78
2022-10-20T03:39:36.636Z,99815.69
2022-10-20T03:42:02.984Z,99834.53
2022-10-20T03:44:29.732Z,99826.03
2022-10-20T03:46:56.078Z,99814.59
2022-10-20T03:49:22.475Z,99819.84
2022-10-20T03:51:48.968Z,99812.97
2022-10-20T03:54:15.297Z,99815.47
2022-10-20T03:56:41.859Z,99808.66
2022-10-20T03:59:10.751Z,99797.31
2022-10-20T04:01:37.379Z,99792.78
2022-10-20T04:04:04.095Z,99791.78
2022-10-20T04:06:30.525Z,99799.44
2022-10-20T04:08:57.012Z,99797.00
2022-10-20T04:11:23.405Z,99787.50
2022-10-20T04:13:49.974Z,99799.44
2022-10-20T04:16:16.381Z,99802.84
2022-10-20T04:18:42.766Z,99796.84
2022-10-20T04:21:09.192Z,99786.34
2022-10-20T04:23:35.847Z,99777.66
2022-10-20T04:26:13.946Z,99783.56
2022-10-20T04:28:40.661Z,99780.06
2022-10-20T04:31:07.797Z,99789.53
2022-10-20T04:33:34.618Z,99780.06
2022-10-20T04:36:10.463Z,99775.06
2022-10-20T04:38:36.834Z,99773.97
2022-10-20T04:41:04.610Z,99777.00
2022-10-20T04:43:34.300Z,99765.19
2022-10-20T04:46:06.903Z,99769.44
2022-10-20T04:48:35.023Z,99779.88
2022-10-20T04:51:07.501Z,99771.84
2022-10-20T04:53:34.078Z,99770.91
2022-10-20T04:56:00.772Z,99760.22
2022-10-20T04:58:27.333Z,99753.38
2022-10-20T05:00:53.690Z,99750.88
2022-10-20T05:03:20.171Z,99749.13
2022-10-20T05:05:47.769Z,99747.47
2022-10-20T05:08:14.423Z,99732.09
2022-10-20T05:10:40.791Z,99733.75
2022-10-20T05:13:07.267Z,99734.59
2022-10-20T05:15:33.634Z,99739.75
2022-10-20T05:18:00.036Z,99742.41
2022-10-20T05:20:26.597Z,99728.81
2022-10-20T05:22:53.307Z,99728.69
2022-10-20T05:25:36.841Z,99721.69
2022-10-20T05:28:04.471Z,99727.56
2022-10-20T05:30:31.345Z,99733.63
2022-10-20T05:32:59.107Z,99724.09
2022-10-20T05:35:25.655Z,99721.41
2022-10-20T05:37:52.398Z,99716.31
2022-10-20T05:40:18.919Z,99704.28
2022-10-20T05:42:45.611Z,99722.88
2022-10-20T05:45:11.958Z,99713.59
2022-10-20T05:47:38.442Z,99704.66
2022-10-20T05:50:05.351Z,99704.59
2022-10-20T05:52:32.135Z,99706.13
2022-10-20T05:54:58.445Z,99704.59
2022-10-20T05:57:24.898Z,99696.75
2022-10-20T05:59:51.351Z,99705.44
2022-10-20T06:02:17.963Z,99705.63
2022-10-20T06:04:44.427Z,99715.94
2022-10-20T06:07:10.921Z,99699.44
2022-10-20T06:09:38.371Z,99688.16
2022-10-20T06:12:05.700Z,99695.63
2022-10-20T06:14:32.284Z,99701.56
2022-10-20T06:16:58.764Z,99692.63
2022-10-20T06:19:25.707Z,99716.63
2022-10-20T06:21:52.067Z,99720.88
2022-10-20T06:24:19.552Z,99725.06
2022-10-20T06:26:46.221Z,99719.25
2022-10-20T06:29:15.668Z,99706.13
2022-10-20T06:31:48.129Z,99693.91
2022-10-20T06:34:17.895Z,99700.78
2022-10-20T06:36:44.989Z,99699.84
2022-10-20T06:39:16.953Z,99706.84
2022-10-20T06:41:43.490Z,99678.97
2022-10-20T06:44:09.898Z,99693.69
2022-10-20T06:46:37.301Z,99693.19
2022-10-20T06:49:06.075Z,99699.19
2022-10-20T06:51:32.932Z,99689.94
2022-10-20T06:54:00.258Z,99703.75
2022-10-20T06:56:29.273Z,99695.91
2022-10-20T06:58:57.205Z,99677.59
2022-10-20T07:01:29.144Z,99689.34
2022-10-20T07:03:59.139Z,99678.91
2022-10-20T07:06:28.523Z,99682.81
2022-10-20T07:08:58.141Z,99680.44
2022-10-20T07:11:27.905Z,99672.13
2022-10-20T07:13:55.356Z,99688.44
2022-10-20T07:16:24.285Z,99681.47
2022-10-20T07:18:51.149Z,99680.56
2022-10-20T07:21:20.379Z,99659.25
2022-10-20T07:23:47.510Z,99649.63
2022-10-20T07:26:17.238Z,99654.19
2022-10-20T07:28:46.313Z,99647.94
2022-10-20T07:31:15.826Z,99659.66
2022-10-20T07:33:42.526Z,99656.63
2022-10-20T07:36:18.508Z,99645.03
2022-10-20T07:38:46.498Z,99654.75
2022-10-20T07:41:12.983Z,99654.56
2022-10-20T07:43:40.134Z,99652.63
2022-10-20T07:46:08.070Z,99658.19
2022-10-20T07:48:35.086Z,99652.53
2022-10-20T07:51:23.242Z,99663.22
2022-10-20T07:53:49.678Z,99657.25
2022-10-20T07:56:16.437Z,99660.00
2022-10-20T07:58:43.612Z,99656.88
2022-10-20T08:01:10.762Z,99653.50
2022-10-20T08:03:38.628Z,99644.34
2022-10-20T08:06:06.400Z,99649.53
2022-10-20T08:08:33.557Z,99654.81
2022-10-20T08:11:00.723Z,99659.44
2022-10-20T08:13:28.401Z,99650.63
2022-10-20T08:15:55.147Z,99645.81
2022-10-20T08:21:18.115Z,99641.84
2022-10-20T08:23:46.839Z,99634.19
2022-10-20T08:26:20.736Z,99633.28
2022-10-20T08:28:52.402Z,99645.03
2022-10-20T08:31:18.810Z,99638.03
2022-10-20T08:33:47.773Z,99624.78
2022-10-20T08:36:17.839Z,99626.81
2022-10-20T08:38:44.286Z,99626.22
2022-10-20T08:41:38.790Z,99620.38
2022-10-20T08:44:22.113Z,99610.88
2022-10-20T08:46:48.608Z,99601.94
2022-10-20T08:49:22.371Z,99593.69
2022-10-20T08:51:49.089Z,99589.22
2022-10-20T08:54:16.801Z,99600.94
2022-10-20T08:56:44.194Z,99605.03
2022-10-20T08:59:39.646Z,99600.66
2022-10-20T09:02:16.273Z,99604.75
2022-10-20T09:04:51.107Z,99602.69
2022-10-20T09:07:23.670Z,99595.09
2022-10-20T09:12:35.706Z,99596.34
2022-10-20T09:15:02.024Z,99585.66
2022-10-20T09:17:28.562Z,99584.00
2022-10-20T09:19:58.234Z,99584.00
2022-10-20T09:22:30.832Z,99584.81
2022-10-20T09:25:00.042Z,99584.38
2022-10-20T09:27:29.138Z,99572.91
2022-10-20T09:29:55.862Z,99568.25
2022-10-20T09:32:49.351Z,99575.00
2022-10-20T09:35:22.836Z,99579.00
2022-10-20T09:38:15.886Z,99571.19
2022-10-20T09:41:03.949Z,99564.59
2022-10-20T09:43:30.953Z,99549.41
2022-10-20T09:46:04.719Z,99546.50
2022-10-20T09:48:41.099Z,99534.50
2022-10-20T09:51:15.060Z,99537.50
2022-10-20T09:53:52.931Z,99535.44
2022-10-20T09:56:27.459Z,99533.00
2022-10-20T09:58:56.387Z,99529.13
2022-10-20T10:01:23.359Z,99503.91
2022-10-20T10:03:54.925Z,99503.50
2022-10-20T10:06:27.247Z,99509.97
2022-10-20T10:08:54.441Z,99503.56
2022-10-20T10:11:24.257Z,99514.72
2022-10-20T10:13:53.284Z,99507.03
2022-10-20T10:16:22.177Z,99491.75
2022-10-20T10:19:03.565Z,99488.81
2022-10-20T10:21:42.848Z,99474.56
2022-10-20T10:24:36.411Z,99475.91
2022-10-20T10:27:02.976Z,99467.06
2022-10-20T10:29:33.046Z,99463.84
2022-10-20T10:32:00.498Z,99460.00
2022-10-20T10:34:37.736Z,99451.97
2022-10-20T10:37:04.162Z,99448.69
2022-10-20T10:39:35.659Z,99458.13
2022-10-20T10:42:26.658Z,99459.53
2022-10-20T10:45:13.218Z,99459.88
2022-10-20T10:51:04.638Z,99430.09
2022-10-20T10:53:58.269Z,99425.38
2022-10-20T10:56:42.420Z,99421.47
2022-10-20T10:59:12.136Z,99451.53
2022-10-20T11:02:16.628Z,99457.97
2022-10-20T11:05:05.212Z,99454.59
2022-10-20T11:07:57.274Z,99433.88
2022-10-20T11:11:06.207Z,99422.81
2022-10-20T11:13:42.759Z,99420.34
2022-10-20T11:16:39.380Z,99417.50
2022-10-20T11:19:26.069Z,99414.69
2022-10-20T11:22:25.629Z,99418.25
2022-10-20T11:25:00.749Z,99413.84
2022-10-20T11:27:32.705Z,99416.56
2022-10-20T11:30:12.133Z,99427.34
2022-10-20T11:33:00.099Z,99423.19
2022-10-20T11:35:44.436Z,99418.00
2022-10-20T11:38:29.557Z,99418.78
2022-10-20T11:41:24.793Z,99409.91
2022-10-20T11:44:21.420Z,99399.72
2022-10-20T11:47:09.400Z,99387.63
2022-10-20T11:49:38.966Z,99390.03
2022-10-20T11:52:42.238Z,99396.78
2022-10-20T11:56:04.297Z,99385.69
2022-10-20T11:59:01.678Z,99387.66
2022-10-20T12:01:39.372Z,99377.94
2022-10-20T12:04:11.831Z,99373.41
2022-10-20T12:07:03.606Z,99363.53
2022-10-20T12:09:47.741Z,99370.50
2022-10-20T12:12:49.732Z,99356.25
2022-10-20T12:15:27.330Z,99356.50
2022-10-20T12:17:57.865Z,99352.09
2022-10-20T12:20:24.137Z,99348.16
2022-10-20T12:22:52.979Z,99342.44
2022-10-20T12:25:25.017Z,99326.81
2022-10-20T12:31:13.351Z,99307.19
2022-10-20T12:34:00.257Z,99309.97
2022-10-20T12:36:33.984Z,99307.44
2022-10-20T12:39:19.667Z,99303.00
2022-10-20T12:42:00.460Z,99299.22
2022-10-20T12:47:29.233Z,99312.84
2022-10-20T12:50:00.720Z,99322.84
2022-10-20T12:52:31.305Z,99324.38
2022-10-20T12:55:05.831Z,99331.97
2022-10-20T12:57:38.346Z,99329.34
2022-10-20T13:00:06.424Z,99316.94
2022-10-20T13:02:43.496Z,99325.84
2022-10-20T13:05:10.196Z,99333.41
2022-10-20T13:07:48.791Z,99332.94
2022-10-20T13:10:27.335Z,99325.50
2022-10-20T13:13:14.858Z,99328.25
2022-10-20T13:15:46.555Z,99330.03
2022-10-20T13:18:12.877Z,99327.88
2022-10-20T13:20:58.224Z,99327.75
2022-10-20T13:23:38.930Z,99324.28
2022-10-20T13:26:20.468Z,99324.28
2022-10-20T13:28:48.333Z,99324.88
2022-10-20T13:31:29.667Z,99340.25
2022-10-20T13:34:05.974Z,99319.69
2022-10-20T13:36:44.910Z,99326.78
2022-10-20T13:39:22.083Z,99321.00
2022-10-20T13:42:13.204Z,99313.69
2022-10-20T13:44:46.320Z,99302.97
2022-10-20T13:47:44.036Z,99281.94
2022-10-20T13:50:32.086Z,99233.25
2022-10-20T13:53:16.722Z,99229.66
2022-10-20T13:56:02.214Z,99225.34
2022-10-20T13:58:28.813Z,99233.28
2022-10-20T14:01:15.290Z,99230.03
2022-10-20T14:03:44.915Z,99283.66
2022-10-20T14:06:37.296Z,99300.81
2022-10-20T14:09:18.122Z,99305.88
2022-10-20T14:11:51.719Z,99313.81
2022-10-20T14:14:21.818Z,99312.13
2022-10-20T14:17:00.758Z,99328.72
2022-10-20T14:19:28.614Z,99326.78
2022-10-20T14:21:58.029Z,99310.56
2022-10-20T14:24:28.558Z,99306.50
2022-10-20T14:26:56.306Z,99301.56
2022-10-20T14:29:25.525Z,99298.16
2022-10-20T14:31:52.158Z,99292.31
2022-10-20T14:34:24.928Z,99292.16
2022-10-20T14:36:54.092Z,99296.63
2022-10-20T14:39:22.290Z,99292.31
2022-10-20T14:41:48.853Z,99285.56
2022-10-20T14:44:31.382Z,99265.72
2022-10-20T14:47:01.868Z,99281.38
2022-10-20T14:49:36.014Z,99272.31
2022-10-20T14:52:06.156Z,99278.22
2022-10-20T14:54:38.552Z,99279.41
2022-10-20T14:57:07.733Z,99294.69
2022-10-20T14:59:37.329Z,99285.78
2022-10-20T15:02:03.793Z,99280.25
2022-10-20T15:04:33.471Z,99280.75
2022-10-20T15:07:07.316Z,99278.22
2022-10-20T15:09:40.141Z,99278.94
2022-10-20T15:12:13.738Z,99272.66
2022-10-20T15:14:44.060Z,99275.94
2022-10-20T15:17:38.818Z,99272.47
2022-10-20T15:20:35.332Z,99281.59
2022-10-20T15:23:06.329Z,99262.84
2022-10-20T15:25:55.649Z,99252.38
2022-10-20T15:28:35.378Z,99229.25
2022-10-20T15:31:04.845Z,99240.34
2022-10-20T15:33:31.715Z,99226.88
2022-10-20T15:35:58.295Z,99235.06
2022-10-20T15:38:24.862Z,99220.41
2022-10-20T15:40:51.340Z,99222.94
2022-10-20T15:43:18.813Z,99227.97
2022-10-20T15:45:49.630Z,99246.72
2022-10-20T15:48:16.177Z,99245.66
2022-10-20T15:50:42.690Z,99232.91
2022-10-20T15:53:11.001Z,99239.28
2022-10-20T15:55:40.806Z,99241.69
2022-10-20T15:58:07.533Z,99259.47
2022-10-20T16:00:34.140Z,99255.25
2022-10-20T16:03:00.665Z,99264.66
2022-10-20T16:05:27.259Z,99243.13
2022-10-20T16:07:55.377Z,99252.75
2022-10-20T16:10:23.957Z,99243.97
2022-10-20T16:12:50.754Z,99235.31
2022-10-20T16:15:17.953Z,99232.78
2022-10-20T16:17:45.598Z,99223.66
2022-10-20T16:20:12.329Z,99223.41
2022-10-20T16:22:39.363Z,99223.66
2022-10-20T16:25:06.389Z,99221.97
2022-10-20T16:27:34.174Z,99234.25
2022-10-20T16:30:01.104Z,99232.53
2022-10-20T16:32:32.842Z,99227.00
2022-10-20T16:35:02.376Z,99224.13
2022-10-20T16:37:30.927Z,99217.41
2022-10-20T16:39:57.650Z,99220.91
2022-10-20T16:42:24.827Z,99215.03
2022-10-20T16:44:51.749Z,99209.13
2022-10-20T16:47:18.057Z,99208.53
2022-10-20T16:49:44.528Z,99216.56
2022-10-20T16:52:10.880Z,99213.31
2022-10-20T16:57:07.787Z,99223.66
2022-10-20T16:59:34.231Z,99213.19
2022-10-20T17:02:00.624Z,99212.47
2022-10-20T17:04:27.033Z,99210.91
2022-10-20T17:06:53.448Z,99219.66
2022-10-20T17:09:20.208Z,99213.91
2022-10-20T17:11:46.638Z,99216.44
2022-10-20T17:14:13.410Z,99221.59
2022-10-20T17:16:39.982Z,99206.56
2022-10-20T17:19:06.971Z,99222.78
2022-10-20T17:21:34.754Z,99221.13
2022-10-20T17:24:02.203Z,99221.34
2022-10-20T17:26:30.695Z,99217.25
2022-10-20T17:29:00.226Z,99219.44
2022-10-20T17:31:27.685Z,99202.25
2022-10-20T17:33:54.095Z,99199.50
2022-10-20T17:36:20.469Z,99186.38
2022-10-20T17:38:46.778Z,99184.94
2022-10-20T17:41:15.603Z,99184.72
2022-10-20T17:43:42.186Z,99185.56
2022-10-20T17:46:12.273Z,99165.84
2022-10-20T17:48:38.659Z,99182.91
2022-10-20T17:51:16.858Z,99188.06
2022-10-20T17:53:46.007Z,99170.28
2022-10-20T17:56:18.357Z,99176.44
2022-10-20T17:58:47.279Z,99177.16
2022-10-20T18:01:17.333Z,99172.81
2022-10-20T18:03:45.229Z,99166.19
2022-10-20T18:06:15.449Z,99165.97
2022-10-20T18:08:41.915Z,99168.97
2022-10-20T18:11:15.100Z,99157.44
2022-10-20T18:13:41.541Z,99160.44
2022-10-20T18:16:09.506Z,99158.91
2022-10-20T18:18:36.561Z,99137.13
2022-10-20T18:21:04.498Z,99151.91
2022-10-20T18:23:31.149Z,99134.59
2022-10-20T18:26:04.424Z,99148.97
2022-10-20T18:28:30.808Z,99137.31
2022-10-20T18:30:57.255Z,99129.97
2022-10-20T18:33:23.569Z,99149.09
2022-10-20T18:35:49.957Z,99144.38
2022-10-20T18:38:16.321Z,99160.81
2022-10-20T18:40:42.742Z,99147.25
2022-10-20T18:43:09.249Z,99151.44
2022-10-20T18:45:35.549Z,99148.34
2022-10-20T18:48:01.923Z,99139.81
2022-10-20T18:50:28.406Z,99147.03
2022-10-20T18:52:54.722Z,99141.13
2022-10-20T18:55:21.275Z,99146.91
2022-10-20T18:57:47.708Z,99156.50
2022-10-20T19:00:14.377Z,99141.63
2022-10-20T19:02:40.858Z,99142.56
2022-10-20T19:05:07.585Z,99149.78
2022-10-20T19:07:34.821Z,99160.81
2022-10-20T19:10:01.545Z,99143.88
2022-10-20T19:12:28.848Z,99154.38
2022-10-20T19:14:55.196Z,99155.56
2022-10-20T19:17:21.563Z,99133.31
2022-10-20T19:19:48.090Z,99150.72
2022-10-20T19:22:14.516Z,99148.88
2022-10-20T19:24:41.186Z,99149.50
2022-10-20T19:27:25.546Z,99151.66
2022-10-20T19:29:52.686Z,99139.66
2022-10-20T19:32:19.143Z,99139.06
2022-10-20T19:34:45.774Z,99138.34
2022-10-20T19:37:12.214Z,99149.88
2022-10-20T19:39:42.103Z,99145.44
2022-10-20T19:42:09.569Z,99148.53
2022-10-20T19:44:36.787Z,99144.81
2022-10-20T19:47:05.119Z,99144.22
2022-10-20T19:49:32.037Z,99143.63
2022-10-20T19:51:58.720Z,99128.78
2022-10-20T19:54:26.255Z,99135.38
2022-10-20T19:56:52.943Z,99127.66
2022-10-20T19:59:19.602Z,99121.53
2022-10-20T20:01:46.190Z,99104.22
2022-10-20T20:04:12.698Z,99112.53
2022-10-20T20:06:39.244Z,99091.28
2022-10-20T20:09:08.700Z,99092.34
2022-10-20T20:11:36.596Z,99078.28
2022-10-20T20:14:21.598Z,99089.13
2022-10-20T20:16:48.269Z,99084.81
2022-10-20T20:19:16.307Z,99088.38
2022-10-20T20:21:42.894Z,99092.84
2022-10-20T20:24:12.351Z,99096.44
2022-10-20T20:26:38.694Z,99102.22
2022-10-20T20:29:05.569Z,99094.41
2022-10-20T20:31:32.983Z,99075.19
2022-10-20T20:33:59.362Z,99068.72
2022-10-20T20:36:27.849Z,99064.75
2022-10-20T20:38:57.480Z,99063.91
2022-10-20T20:41:25.873Z,99066.28
2022-10-20T20:43:52.210Z,99063.66
2022-10-20T20:46:20.567Z,99077.34
2022-10-20T20:48:46.906Z,99052.72
2022-10-20T20:51:14.329Z,99084.78
2022-10-20T20:53:41.058Z,99116.00
2022-10-20T20:56:09.087Z,99111.69
2022-10-20T20:58:35.998Z,99117.22
2022-10-20T21:01:12.498Z,99129.44
2022-10-20T21:03:39.377Z,99113.84
2022-10-20T21:06:09.803Z,99131.50
2022-10-20T21:08:38.531Z,99131.63
2022-10-20T21:11:10.632Z,99135.34
2022-10-20T21:13:37.527Z,99126.84
2022-10-20T21:16:22.086Z,99129.59
2022-10-20T21:18:50.613Z,99148.66
2022-10-20T21:21:28.825Z,99143.38
2022-10-20T21:23:56.863Z,99140.16
2022-10-20T21:26:23.449Z,99105.34
2022-10-20T21:28:50.567Z,99065.81
2022-10-20T21:31:20.107Z,99073.13
2022-10-20T21:33:50.519Z,99096.66
2022-10-20T21:36:18.511Z,99080.06
2022-10-20T21:38:45.346Z,99082.25
2022-10-20T21:41:14.855Z,99081.88
2022-10-20T21:43:44.402Z,99042.75
2022-10-20T21:46:17.054Z,99049.97
2022-10-20T21:48:45.270Z,99040.22
2022-10-20T21:51:19.152Z,99059.06
2022-10-20T21:53:46.706Z,99063.41
2022-10-20T21:56:14.616Z,99060.91
2022-10-20T21:58:41.471Z,99061.84
2022-10-20T22:01:13.035Z,99046.59
2022-10-20T22:03:39.858Z,99047.44
2022-10-20T22:06:07.469Z,99059.09
2022-10-20T22:08:36.276Z,99053.69
2022-10-20T22:11:04.826Z,99057.66
2022-10-20T22:13:31.647Z,99056.78
2022-10-20T22:15:58.669Z,99070.09
2022-10-20T22:18:25.379Z,99065.06
2022-10-20T22:20:51.770Z,99074.09
2022-10-20T22:23:18.167Z,99075.16
2022-10-20T22:25:44.624Z,99064.25
2022-10-20T22:28:11.164Z,99072.16
2022-10-20T22:30:37.490Z,99053.13
2022-10-20T22:33:04.087Z,99058.41
2022-10-20T22:35:30.910Z,99057.97
2022-10-20T22:37:57.471Z,99062.00
2022-10-20T22:40:24.045Z,99062.41
2022-10-20T22:42:50.471Z,99068.44
2022-10-20T22:45:17.022Z,99073.16
2022-10-20T22:47:43.453Z,99060.44
2022-10-20T22:50:09.920Z,99059.84
2022-10-20T22:52:36.641Z,99071.75
2022-10-20T22:55:03.647Z,99070.13
2022-10-20T22:57:30.029Z,99070.41
2022-10-20T22:59:56.384Z,99064.16
2022-10-20T23:02:22.849Z,99059.66
2022-10-20T23:04:49.275Z,99063.53
2022-10-20T23:07:15.980Z,99050.44
2022-10-20T23:09:42.446Z,99072.91
2022-10-20T23:12:09.089Z,99051.44
2022-10-20T23:14:35.858Z,99072.66
2022-10-20T23:17:02.275Z,99054.56
2022-10-20T23:19:28.826Z,99056.91
2022-10-20T23:21:55.335Z,99047.91
2022-10-20T23:24:22.052Z,99046.06
2022-10-20T23:26:48.433Z,99032.75
2022-10-20T23:29:15.108Z,99039.53
2022-10-20T23:31:41.511Z,99044.47
2022-10-20T23:34:08.891Z,99034.47
2022-10-20T23:36:38.253Z,99027.84
2022-10-20T23:39:05.611Z,99022.41
2022-10-20T23:41:32.102Z,99023.66
2022-10-20T23:43:58.465Z,99026.59
2022-10-20T23:46:25.198Z,99013.81
2022-10-20T23:48:51.838Z,99013.44
2022-10-20T23:51:18.229Z,99004.06
2022-10-20T23:53:44.603Z,99003.28
2022-10-20T23:56:11.261Z,99004.00
2022-10-20T23:58:37.899Z,98992.75
